Time,TemperatureF,DewpointF,PressureIn,WindDirection,WindDirectionDegrees,WindSpeedMPH,WindSpeedGustMPH,Humidity,HourlyPrecipIn,Conditions,Clouds,dailyrainin,SoftwareType,DateUTC
2013-05-06 00:02:00,55.0,53.0,29.74,NW,304,0.0,7.0,93,0.00,,,0.00,,2013-05-06 05:02:00,
2013-05-06 00:12:00,55.0,53.0,29.74,NW,304,0.0,7.0,93,0.00,,,0.00,,2013-05-06 05:12:00,
2013-05-06 00:22:00,55.0,53.0,29.75,NW,306,2.0,7.0,94,0.00,,,0.00,,2013-05-06 05:22:00,
2013-05-06 00:32:00,55.0,53.0,29.75,NW,320,0.0,6.0,94,0.00,,,0.00,,2013-05-06 05:32:00,
2013-05-06 00:42:00,55.0,53.0,29.75,NW,320,0.0,6.0,94,0.00,,,0.00,,2013-05-06 05:42:00,
2013-05-06 00:52:00,55.0,54.0,29.74,NW,319,0.0,6.0,95,0.00,,,0.00,,2013-05-06 05:52:00,
2013-05-06 01:02:00,55.0,54.0,29.74,NW,312,0.0,5.0,95,0.08,,,0.08,,2013-05-06 06:02:00,
2013-05-06 01:12:00,55.0,54.0,29.74,NW,312,0.0,5.0,95,0.08,,,0.08,,2013-05-06 06:12:00,
2013-05-06 01:21:00,55.0,54.0,29.74,NW,312,0.0,5.0,95,0.08,,,0.08,,2013-05-06 06:21:00,
2013-05-06 01:32:00,56.0,55.0,29.73,WNW,285,1.0,6.0,97,0.08,,,0.08,,2013-05-06 06:32:00,
2013-05-06 01:42:00,56.0,55.0,29.73,WNW,285,1.0,6.0,97,0.08,,,0.08,,2013-05-06 06:42:00,
2013-05-06 01:52:00,56.0,55.0,29.72,NNW,346,0.0,6.0,98,0.08,,,0.08,,2013-05-06 06:52:00,
2013-05-06 02:01:00,56.0,55.0,29.72,NNW,344,0.0,7.0,97,0.00,,,0.08,,2013-05-06 07:01:00,
2013-05-06 02:11:00,56.0,55.0,29.72,NNW,344,0.0,7.0,97,0.00,,,0.08,,2013-05-06 07:11:00,
2013-05-06 02:22:00,56.0,56.0,29.71,North,353,2.0,7.0,99,0.00,,,0.08,,2013-05-06 07:22:00,
2013-05-06 02:31:00,56.0,56.0,29.71,NE,37,2.0,7.0,99,0.00,,,0.08,,2013-05-06 07:31:00,
2013-05-06 02:42:00,56.0,56.0,29.71,NE,37,2.0,7.0,99,0.00,,,0.08,,2013-05-06 07:42:00,
2013-05-06 02:52:00,56.0,56.0,29.71,NNE,28,6.0,7.0,99,0.00,,,0.08,,2013-05-06 07:52:00,
2013-05-06 03:02:00,56.0,56.0,29.71,NE,40,5.0,6.0,99,0.00,,,0.08,,2013-05-06 08:02:00,
2013-05-06 03:12:00,56.0,56.0,29.71,NE,40,5.0,6.0,99,0.00,,,0.08,,2013-05-06 08:12:00,
2013-05-06 03:22:00,56.0,56.0,29.72,ENE,58,3.0,6.0,99,0.00,,,0.08,,2013-05-06 08:22:00,
2013-05-06 03:52:00,56.0,55.0,29.72,NE,52,4.0,8.0,98,0.00,,,0.08,,2013-05-06 08:52:00,
2013-05-06 04:01:00,55.0,55.0,29.72,NNE,16,3.0,5.0,99,0.00,,,0.08,,2013-05-06 09:01:00,
2013-05-06 04:11:00,55.0,55.0,29.72,NNE,16,3.0,5.0,99,0.00,,,0.08,,2013-05-06 09:11:00,
2013-05-06 04:22:00,55.0,55.0,29.72,NNE,14,2.0,5.0,99,0.00,,,0.08,,2013-05-06 09:22:00,
2013-05-06 04:33:00,55.0,55.0,29.71,North,11,2.0,7.0,99,0.00,,,0.08,,2013-05-06 09:33:00,
2013-05-06 04:42:00,55.0,55.0,29.71,North,11,2.0,7.0,99,0.00,,,0.08,,2013-05-06 09:42:00,
2013-05-06 04:53:00,55.0,54.0,29.71,NNE,32,2.0,7.0,98,0.00,,,0.08,,2013-05-06 09:53:00,
2013-05-06 05:02:00,55.0,54.0,29.72,North,354,0.0,8.0,98,0.00,,,0.08,,2013-05-06 10:02:00,
2013-05-06 05:12:00,55.0,54.0,29.72,North,354,0.0,8.0,98,0.00,,,0.08,,2013-05-06 10:12:00,
2013-05-06 05:22:00,55.0,54.0,29.72,North,359,2.0,8.0,98,0.00,,,0.08,,2013-05-06 10:22:00,
2013-05-06 05:33:00,55.0,54.0,29.72,NNE,24,1.0,7.0,98,0.00,,,0.08,,2013-05-06 10:33:00,
2013-05-06 05:41:00,55.0,54.0,29.72,NNE,24,1.0,7.0,98,0.00,,,0.08,,2013-05-06 10:41:00,
2013-05-06 05:52:00,55.0,54.0,29.72,NNE,24,1.0,7.0,98,0.00,,,0.08,,2013-05-06 10:52:00,
2013-05-06 06:02:00,55.0,54.0,29.72,North,356,2.0,7.0,98,0.00,,,0.08,,2013-05-06 11:02:00,
2013-05-06 06:12:00,55.0,54.0,29.72,North,356,2.0,7.0,98,0.00,,,0.08,,2013-05-06 11:12:00,
2013-05-06 06:22:00,55.0,54.0,29.73,North,3,0.0,7.0,98,0.00,,,0.08,,2013-05-06 11:22:00,
2013-05-06 06:31:00,55.0,54.0,29.73,North,8,0.0,7.0,98,0.00,,,0.08,,2013-05-06 11:31:00,
2013-05-06 06:42:00,55.0,54.0,29.73,North,8,0.0,7.0,98,0.00,,,0.08,,2013-05-06 11:42:00,
2013-05-06 06:52:00,55.0,54.0,29.73,North,353,3.0,7.0,98,0.00,,,0.08,,2013-05-06 11:52:00,
2013-05-06 07:01:00,55.0,54.0,29.73,NNE,25,0.0,8.0,98,0.00,,,0.08,,2013-05-06 12:01:00,
2013-05-06 07:12:00,55.0,54.0,29.73,NNE,25,0.0,8.0,98,0.00,,,0.08,,2013-05-06 12:12:00,
2013-05-06 07:21:00,55.0,55.0,29.74,NNW,332,2.0,8.0,99,0.00,,,0.08,,2013-05-06 12:21:00,
2013-05-06 07:32:00,55.0,55.0,29.74,NNW,347,2.0,8.0,99,0.00,,,0.08,,2013-05-06 12:32:00,
2013-05-06 07:41:00,55.0,55.0,29.74,NNW,347,2.0,8.0,99,0.00,,,0.08,,2013-05-06 12:41:00,
2013-05-06 07:51:00,55.0,54.0,29.75,North,3,2.0,8.0,98,0.00,,,0.08,,2013-05-06 12:51:00,
2013-05-06 08:01:00,55.0,55.0,29.75,NW,315,3.0,8.0,99,0.00,,,0.08,,2013-05-06 13:01:00,
2013-05-06 08:11:00,55.0,55.0,29.75,NW,315,3.0,8.0,99,0.00,,,0.08,,2013-05-06 13:11:00,
2013-05-06 09:01:00,56.0,56.0,29.76,North,7,5.0,11.0,99,0.00,,,0.08,,2013-05-06 14:01:00,
2013-05-06 09:11:00,57.0,57.0,29.76,North,0,3.0,11.0,99,0.00,,,0.08,,2013-05-06 14:11:00,
2013-05-06 09:21:00,57.0,57.0,29.76,North,0,3.0,11.0,99,0.00,,,0.08,,2013-05-06 14:21:00,
2013-05-06 09:32:00,57.0,1.0,29.75,North,359,2.0,11.0,10,0.00,,,0.08,,2013-05-06 14:32:00,
2013-05-06 09:42:00,58.0,57.0,29.75,North,357,0.0,11.0,97,0.00,,,0.08,,2013-05-06 14:42:00,
2013-05-06 09:51:00,58.0,57.0,29.75,North,357,0.0,11.0,97,0.00,,,0.08,,2013-05-06 14:51:00,
2013-05-06 10:01:00,58.0,57.0,29.75,NE,47,1.0,11.0,98,0.00,,,0.08,,2013-05-06 15:01:00,
2013-05-06 10:11:00,58.0,57.0,29.75,NE,47,1.0,11.0,98,0.00,,,0.08,,2013-05-06 15:11:00,
2013-05-06 10:21:00,58.0,57.0,29.75,North,349,3.0,11.0,96,0.00,,,0.08,,2013-05-06 15:21:00,
2013-05-06 11:03:00,59.0,58.0,29.76,North,353,7.0,11.0,96,0.00,,,0.08,,2013-05-06 16:03:00,
2013-05-06 11:13:00,59.0,58.0,29.76,North,353,7.0,11.0,96,0.00,,,0.08,,2013-05-06 16:13:00,
2013-05-06 11:23:00,59.0,58.0,29.76,NE,45,1.0,11.0,95,0.00,,,0.08,,2013-05-06 16:23:00,
2013-05-06 11:32:00,60.0,58.0,29.77,WNW,301,2.0,11.0,94,0.00,,,0.08,,2013-05-06 16:32:00,
2013-05-06 11:41:00,60.0,58.0,29.77,WNW,301,2.0,11.0,94,0.00,,,0.08,,2013-05-06 16:41:00,
2013-05-06 11:52:00,60.0,58.0,29.77,NNW,337,2.0,11.0,93,0.00,,,0.08,,2013-05-06 16:52:00,
2013-05-06 12:03:00,60.0,58.0,29.77,North,8,1.0,9.0,92,0.00,,,0.08,,2013-05-06 17:03:00,
2013-05-06 12:12:00,60.0,58.0,29.77,North,8,1.0,9.0,92,0.00,,,0.08,,2013-05-06 17:12:00,
2013-05-06 12:23:00,60.0,58.0,29.77,NW,325,1.0,9.0,92,0.00,,,0.08,,2013-05-06 17:23:00,
2013-05-06 12:31:00,60.0,58.0,29.77,North,359,8.0,11.0,92,0.00,,,0.08,,2013-05-06 17:31:00,
2013-05-06 12:42:00,60.0,58.0,29.77,North,359,8.0,11.0,92,0.00,,,0.08,,2013-05-06 17:42:00,
2013-05-06 12:52:00,60.0,58.0,29.77,North,350,0.0,11.0,94,0.00,,,0.08,,2013-05-06 17:52:00,
2013-05-06 13:01:00,61.0,60.0,29.77,North,356,6.0,11.0,97,0.02,,,0.10,,2013-05-06 18:01:00,
2013-05-06 13:12:00,61.0,60.0,29.77,North,356,6.0,11.0,97,0.02,,,0.10,,2013-05-06 18:12:00,
2013-05-06 13:21:00,62.0,61.0,29.76,North,357,3.0,11.0,97,0.02,,,0.10,,2013-05-06 18:21:00,
2013-05-06 13:31:00,63.0,60.0,29.76,NNE,27,7.0,12.0,91,0.02,,,0.10,,2013-05-06 18:31:00,
2013-05-06 13:43:00,63.0,60.0,29.76,NNE,27,7.0,12.0,91,0.02,,,0.10,,2013-05-06 18:43:00,
2013-05-06 13:52:00,64.0,60.0,29.75,ENE,58,4.0,12.0,86,0.02,,,0.10,,2013-05-06 18:52:00,
2013-05-06 14:01:00,64.0,59.0,29.75,North,10,8.0,13.0,83,0.00,,,0.10,,2013-05-06 19:01:00,
2013-05-06 14:11:00,64.0,59.0,29.75,North,10,8.0,13.0,83,0.00,,,0.10,,2013-05-06 19:11:00,
2013-05-06 14:22:00,65.0,60.0,29.75,NE,55,6.0,13.0,84,0.00,,,0.10,,2013-05-06 19:22:00,
2013-05-06 14:32:00,65.0,58.0,29.75,NE,34,6.0,14.0,77,0.00,,,0.10,,2013-05-06 19:32:00,
2013-05-06 14:41:00,65.0,58.0,29.75,NE,34,6.0,14.0,77,0.00,,,0.10,,2013-05-06 19:41:00,
2013-05-06 14:52:00,65.0,58.0,29.75,NE,34,6.0,14.0,77,0.00,,,0.10,,2013-05-06 19:52:00,
2013-05-06 15:02:00,65.0,57.0,29.75,NE,51,3.0,14.0,76,0.00,,,0.10,,2013-05-06 20:02:00,
2013-05-06 15:11:00,63.0,59.0,29.75,East,79,3.0,14.0,88,0.00,,,0.10,,2013-05-06 20:11:00,
2013-05-06 15:21:00,63.0,59.0,29.75,East,79,3.0,14.0,88,0.00,,,0.10,,2013-05-06 20:21:00,
2013-05-06 15:32:00,63.0,60.0,29.77,ENE,72,0.0,14.0,91,0.01,,,0.11,,2013-05-06 20:32:00,
2013-05-06 15:42:00,63.0,60.0,29.77,ENE,72,0.0,14.0,91,0.01,,,0.11,,2013-05-06 20:42:00,
2013-05-06 15:52:00,63.0,60.0,29.76,ENE,72,1.0,14.0,90,0.01,,,0.11,,2013-05-06 20:52:00,
2013-05-06 16:01:00,63.0,60.0,29.76,East,79,5.0,10.0,90,0.01,,,0.11,,2013-05-06 21:01:00,
2013-05-06 16:11:00,63.0,60.0,29.76,East,79,5.0,10.0,90,0.01,,,0.11,,2013-05-06 21:11:00,
2013-05-06 16:21:00,62.0,57.0,29.75,NE,40,2.0,10.0,84,0.01,,,0.11,,2013-05-06 21:21:00,
2013-05-06 16:32:00,62.0,57.0,29.75,NE,41,0.0,7.0,84,0.00,,,0.11,,2013-05-06 21:32:00,
2013-05-06 16:42:00,62.0,57.0,29.75,NE,41,0.0,7.0,84,0.00,,,0.11,,2013-05-06 21:42:00,
2013-05-06 16:53:00,62.0,57.0,29.75,NE,40,0.0,7.0,84,0.00,,,0.11,,2013-05-06 21:53:00,
2013-05-06 17:03:00,62.0,58.0,29.75,NE,41,0.0,7.0,86,0.00,,,0.11,,2013-05-06 22:03:00,
2013-05-06 17:12:00,62.0,58.0,29.75,NE,41,0.0,7.0,86,0.00,,,0.11,,2013-05-06 22:12:00,
2013-05-06 17:22:00,62.0,57.0,29.75,NE,38,0.0,3.0,85,0.00,,,0.11,,2013-05-06 22:22:00,
2013-05-06 17:33:00,62.0,58.0,29.76,NNE,30,2.0,5.0,86,0.00,,,0.11,,2013-05-06 22:33:00,
2013-05-06 17:45:00,62.0,58.0,29.76,NNE,30,2.0,5.0,86,0.00,,,0.11,,2013-05-06 22:45:00,
2013-05-06 17:52:00,62.0,57.0,29.77,NNW,336,0.0,5.0,83,0.00,,,0.11,,2013-05-06 22:52:00,
2013-05-06 18:03:00,62.0,57.0,29.77,NW,316,1.0,5.0,85,0.00,,,0.11,,2013-05-06 23:03:00,
2013-05-06 18:12:00,62.0,57.0,29.77,NW,316,1.0,5.0,85,0.00,,,0.11,,2013-05-06 23:12:00,
2013-05-06 18:22:00,61.0,57.0,29.77,WNW,302,5.0,5.0,86,0.00,,,0.11,,2013-05-06 23:22:00,
2013-05-06 18:31:00,61.0,57.0,29.77,NW,315,1.0,6.0,87,0.00,,,0.11,,2013-05-06 23:31:00,
2013-05-06 18:42:00,61.0,57.0,29.77,NW,315,1.0,6.0,87,0.00,,,0.11,,2013-05-06 23:42:00,
2013-05-06 18:52:00,61.0,57.0,29.77,NW,315,1.0,6.0,87,0.00,,,0.11,,2013-05-06 23:52:00,
2013-05-06 19:01:00,60.0,56.0,29.78,North,354,1.0,6.0,88,0.00,,,0.11,,2013-05-07 00:01:00,
2013-05-06 19:11:00,60.0,56.0,29.78,North,354,1.0,6.0,88,0.00,,,0.11,,2013-05-07 00:11:00,
2013-05-06 19:21:00,60.0,56.0,29.79,NNW,344,0.0,6.0,87,0.00,,,0.11,,2013-05-07 00:21:00,
2013-05-06 19:31:00,60.0,56.0,29.79,NNW,343,0.0,5.0,88,0.00,,,0.11,,2013-05-07 00:31:00,
2013-05-06 19:41:00,60.0,56.0,29.79,NNW,343,0.0,5.0,88,0.00,,,0.11,,2013-05-07 00:41:00,
2013-05-06 19:51:00,60.0,57.0,29.79,NNW,343,0.0,5.0,89,0.00,,,0.11,,2013-05-07 00:51:00,
2013-05-06 20:01:00,59.0,57.0,29.79,NNW,343,0.0,5.0,92,0.00,,,0.11,,2013-05-07 01:01:00,
2013-05-06 20:11:00,59.0,57.0,29.79,NNW,343,0.0,5.0,92,0.00,,,0.11,,2013-05-07 01:11:00,
2013-05-06 20:21:00,59.0,58.0,29.79,NNW,344,0.0,3.0,95,0.00,,,0.11,,2013-05-07 01:21:00,
2013-05-06 20:32:00,59.0,57.0,29.80,NW,306,0.0,6.0,94,0.00,,,0.11,,2013-05-07 01:32:00,
2013-05-06 20:42:00,59.0,57.0,29.80,NW,306,0.0,6.0,94,0.00,,,0.11,,2013-05-07 01:42:00,
2013-05-06 20:52:00,58.0,57.0,29.80,NW,325,0.0,6.0,95,0.00,,,0.11,,2013-05-07 01:52:00,
2013-05-06 21:02:00,58.0,57.0,29.80,NW,319,0.0,6.0,96,0.00,,,0.11,,2013-05-07 02:02:00,
2013-05-06 21:11:00,58.0,57.0,29.80,NW,319,0.0,6.0,96,0.00,,,0.11,,2013-05-07 02:11:00,
2013-05-06 21:21:00,59.0,58.0,29.81,West,281,0.0,5.0,97,0.00,,,0.11,,2013-05-07 02:21:00,
2013-05-06 21:31:00,59.0,58.0,29.82,NNW,330,0.0,7.0,97,0.00,,,0.11,,2013-05-07 02:31:00,
2013-05-06 21:41:00,59.0,58.0,29.82,NNW,330,0.0,7.0,97,0.00,,,0.11,,2013-05-07 02:41:00,
2013-05-06 21:52:00,59.0,58.0,29.82,NW,325,0.0,7.0,98,0.00,,,0.11,,2013-05-07 02:52:00,
2013-05-06 22:01:00,59.0,58.0,29.83,North,357,0.0,7.0,97,0.00,,,0.11,,2013-05-07 03:01:00,
2013-05-06 22:11:00,59.0,58.0,29.83,North,357,0.0,7.0,97,0.00,,,0.11,,2013-05-07 03:11:00,
2013-05-06 22:21:00,59.0,58.0,29.83,NW,323,0.0,8.0,97,0.00,,,0.11,,2013-05-07 03:21:00,
2013-05-06 22:32:00,59.0,58.0,29.83,North,353,0.0,6.0,97,0.00,,,0.11,,2013-05-07 03:32:00,
2013-05-06 22:42:00,59.0,58.0,29.83,North,353,0.0,6.0,97,0.00,,,0.11,,2013-05-07 03:42:00,
2013-05-06 22:53:00,59.0,58.0,29.82,North,357,0.0,6.0,97,0.00,,,0.11,,2013-05-07 03:53:00,
2013-05-06 23:02:00,58.0,57.0,29.83,North,357,0.0,6.0,97,0.00,,,0.11,,2013-05-07 04:02:00,
2013-05-06 23:12:00,58.0,57.0,29.83,North,357,0.0,6.0,97,0.00,,,0.11,,2013-05-07 04:12:00,
2013-05-06 23:23:00,58.0,57.0,29.82,North,357,0.0,3.0,98,0.00,,,0.11,,2013-05-07 04:23:00,
2013-05-06 23:33:00,58.0,57.0,29.83,North,357,0.0,3.0,98,0.00,,,0.11,,2013-05-07 04:33:00,
2013-05-06 23:42:00,58.0,57.0,29.83,North,357,0.0,3.0,98,0.00,,,0.11,,2013-05-07 04:42:00,
2013-05-06 23:52:00,58.0,57.0,29.82,North,350,0.0,3.0,98,0.00,,,0.11,,2013-05-07 04:52:00,